createdAt,value
2022-12-03T00:00:36.569Z,94963.59
2022-12-03T00:03:04.135Z,94964.88
2022-12-03T00:05:30.852Z,94968.69
2022-12-03T00:07:57.461Z,94970.94
2022-12-03T00:10:24.455Z,94970.75
2022-12-03T00:12:50.927Z,94964.81
2022-12-03T00:15:17.633Z,94975.19
2022-12-03T00:17:44.493Z,94965.47
2022-12-03T00:20:18.696Z,94966.66
2022-12-03T00:22:45.444Z,94956.28
2022-12-03T00:25:12.025Z,94964.69
2022-12-03T00:27:38.551Z,94969.00
2022-12-03T00:30:06.597Z,94963.72
2022-12-03T00:32:33.137Z,94970.53
2022-12-03T00:34:59.675Z,94962.22
2022-12-03T00:37:26.536Z,94960.59
2022-12-03T00:39:53.108Z,94967.53
2022-12-03T00:42:19.610Z,94968.72
2022-12-03T00:44:46.148Z,94954.66
2022-12-03T00:47:12.947Z,94970.88
2022-12-03T00:49:39.596Z,94963.63
2022-12-03T00:52:06.197Z,94976.69
2022-12-03T00:54:32.984Z,94965.13
2022-12-03T00:56:59.537Z,94974.00
2022-12-03T00:59:26.333Z,94968.59
2022-12-03T01:01:52.971Z,94984.59
2022-12-03T01:04:19.667Z,94972.72
2022-12-03T01:06:46.408Z,94981.16
2022-12-03T01:09:13.036Z,94969.00
2022-12-03T01:11:39.707Z,94971.28
2022-12-03T01:14:07.473Z,94969.31
2022-12-03T01:16:34.616Z,94971.38
2022-12-03T01:19:01.435Z,94984.16
2022-12-03T01:21:28.570Z,94973.75
2022-12-03T01:23:55.213Z,94977.19
2022-12-03T01:26:21.755Z,94972.22
2022-12-03T01:28:48.616Z,94966.16
2022-12-03T01:31:33.916Z,94971.91
2022-12-03T01:34:00.743Z,94971.34
2022-12-03T01:36:27.321Z,94962.31
2022-12-03T01:38:53.829Z,94968.59
2022-12-03T01:41:22.695Z,94973.34
2022-12-03T01:43:51.184Z,94973.78
2022-12-03T01:46:24.681Z,94973.34
2022-12-03T01:48:53.737Z,94975.06
2022-12-03T01:51:20.463Z,94967.19
2022-12-03T01:53:47.846Z,94959.84
2022-12-03T01:56:17.248Z,94971.59
2022-12-03T01:58:45.482Z,94959.81
2022-12-03T02:01:18.110Z,94958.75
2022-12-03T02:03:46.339Z,94955.81
2022-12-03T02:06:21.306Z,94957.53
2022-12-03T02:08:49.148Z,94949.53
2022-12-03T02:11:34.522Z,94953.28
2022-12-03T02:14:06.237Z,94941.72
2022-12-03T02:16:35.065Z,94942.34
2022-12-03T02:19:02.176Z,94949.63
2022-12-03T02:22:02.082Z,94936.31
2022-12-03T02:25:09.343Z,94944.53
2022-12-03T02:27:36.037Z,94943.06
2022-12-03T02:30:04.416Z,94941.38
2022-12-03T02:32:31.017Z,94952.31
2022-12-03T02:34:57.613Z,94951.13
2022-12-03T02:37:30.791Z,94946.06
2022-12-03T02:40:02.155Z,94944.41
2022-12-03T02:42:35.686Z,94944.09
2022-12-03T02:45:19.109Z,94943.97
2022-12-03T02:47:49.595Z,94934.16
2022-12-03T02:50:20.702Z,94935.66
2022-12-03T02:52:48.103Z,94938.94
2022-12-03T02:55:17.021Z,94924.88
2022-12-03T02:57:46.533Z,94939.47
2022-12-03T03:00:14.133Z,94932.75
2022-12-03T03:02:41.854Z,94923.13
2022-12-03T03:05:11.778Z,94916.94
2022-12-03T03:07:39.719Z,94928.75
2022-12-03T03:10:09.309Z,94930.91
2022-12-03T03:12:39.244Z,94914.25
2022-12-03T03:15:07.747Z,94928.28
2022-12-03T03:17:34.472Z,94944.50
2022-12-03T03:20:01.582Z,94955.88
2022-12-03T03:22:36.363Z,94960.66
2022-12-03T03:25:04.579Z,94968.22
2022-12-03T03:27:31.437Z,94972.97
2022-12-03T03:29:59.108Z,94964.44
2022-12-03T03:32:28.299Z,94960.34
2022-12-03T03:34:55.780Z,94949.53
2022-12-03T03:37:24.196Z,94950.38
2022-12-03T03:39:51.215Z,94949.53
2022-12-03T03:42:18.003Z,94947.97
2022-12-03T03:44:44.698Z,94952.53
2022-12-03T03:47:12.696Z,94943.03
2022-12-03T03:49:39.306Z,94962.94
2022-12-03T03:52:06.301Z,94975.03
2022-12-03T03:54:33.269Z,94974.25
2022-12-03T03:56:59.860Z,94961.19
2022-12-03T03:59:26.723Z,94963.31
2022-12-03T04:01:53.659Z,94959.75
2022-12-03T04:04:22.927Z,94961.06
2022-12-03T04:06:49.717Z,94952.75
2022-12-03T04:09:16.443Z,94958.38
2022-12-03T04:12:01.551Z,94958.34
2022-12-03T04:14:28.230Z,94948.19
2022-12-03T04:16:54.845Z,94953.16
2022-12-03T04:19:21.497Z,94950.25
2022-12-03T04:22:06.519Z,94953.47
2022-12-03T04:24:32.998Z,94955.13
2022-12-03T04:27:17.891Z,94957.28
2022-12-03T04:29:44.382Z,94955.56
2022-12-03T04:32:29.361Z,94956.13
2022-12-03T04:35:14.687Z,94937.09
2022-12-03T04:37:41.463Z,94949.53
2022-12-03T04:40:28.649Z,94947.88
2022-12-03T04:42:55.456Z,94951.44
2022-12-03T04:45:21.998Z,94950.88
2022-12-03T04:47:48.555Z,94953.13
2022-12-03T04:50:15.469Z,94952.06
2022-12-03T04:52:41.929Z,94957.28
2022-12-03T04:55:08.718Z,94965.59
2022-12-03T04:57:35.251Z,94956.41
2022-12-03T05:00:02.204Z,94967.13
2022-12-03T05:02:28.775Z,94970.88
2022-12-03T05:04:55.715Z,94958.81
2022-12-03T05:07:22.398Z,94959.75
2022-12-03T05:09:48.945Z,94963.09
2022-12-03T05:12:15.528Z,94967.84
2022-12-03T05:14:42.065Z,94971.75
2022-12-03T05:17:08.678Z,94972.75
2022-12-03T05:19:53.779Z,94959.53
2022-12-03T05:22:20.316Z,94956.25
2022-12-03T05:24:46.790Z,94953.34
2022-12-03T05:27:15.822Z,94960.31
2022-12-03T05:29:45.364Z,94967.94
2022-12-03T05:32:11.921Z,94955.75
2022-12-03T05:34:38.618Z,94970.25
2022-12-03T05:37:05.200Z,94968.31
2022-12-03T05:39:31.739Z,94976.00
2022-12-03T05:42:17.170Z,94955.13
2022-12-03T05:44:43.732Z,94965.44
2022-12-03T05:47:10.233Z,94960.03
2022-12-03T05:49:36.831Z,94963.22
2022-12-03T05:52:03.458Z,94950.88
2022-12-03T05:54:29.957Z,94959.84
2022-12-03T05:56:56.672Z,94964.59
2022-12-03T05:59:23.214Z,94955.06
2022-12-03T06:01:49.729Z,94948.81
2022-12-03T06:04:16.242Z,94944.66
2022-12-03T06:06:42.736Z,94944.09
2022-12-03T06:09:09.216Z,94946.34
2022-12-03T06:11:37.143Z,94945.53
2022-12-03T06:14:04.107Z,94944.56
2022-12-03T06:16:30.648Z,94939.25
2022-12-03T06:18:57.556Z,94934.75
2022-12-03T06:21:24.187Z,94939.94
2022-12-03T06:23:50.697Z,94941.63
2022-12-03T06:26:17.265Z,94937.94
2022-12-03T06:28:46.421Z,94939.47
2022-12-03T06:31:14.047Z,94937.38
2022-12-03T06:33:40.701Z,94941.63
2022-12-03T06:36:07.416Z,94940.13
2022-12-03T06:38:33.969Z,94938.81
2022-12-03T06:41:00.507Z,94939.69
2022-12-03T06:43:27.054Z,94938.81
2022-12-03T06:45:53.533Z,94934.25
2022-12-03T06:48:20.182Z,94930.59
2022-12-03T06:50:46.678Z,94935.78
2022-12-03T06:53:13.180Z,94936.88
2022-12-03T06:55:39.701Z,94944.84
2022-12-03T06:58:06.167Z,94946.69
2022-12-03T07:00:32.681Z,94941.25
2022-12-03T07:02:59.398Z,94941.41
2022-12-03T07:05:25.970Z,94949.19
2022-12-03T07:07:55.273Z,94948.25
2022-12-03T07:10:22.920Z,94938.50
2022-12-03T07:12:49.435Z,94943.31
2022-12-03T07:15:16.140Z,94953.28
2022-12-03T07:17:42.855Z,94950.91
2022-12-03T07:20:09.966Z,94954.75
2022-12-03T07:22:36.467Z,94950.41
2022-12-03T07:25:03.041Z,94951.97
2022-12-03T07:27:29.558Z,94933.41
2022-12-03T07:29:56.099Z,94950.84
2022-12-03T07:32:22.640Z,94943.53
2022-12-03T07:34:49.122Z,94949.41
2022-12-03T07:37:19.953Z,94949.41
2022-12-03T07:39:49.473Z,94948.53
2022-12-03T07:42:16.002Z,94932.75
2022-12-03T07:44:42.527Z,94955.91
2022-12-03T07:47:09.381Z,94950.19
2022-12-03T07:49:35.919Z,94945.66
2022-12-03T07:52:02.489Z,94944.00
2022-12-03T07:54:29.203Z,94935.69
2022-12-03T07:57:01.189Z,94946.34
2022-12-03T07:59:28.843Z,94943.16
2022-12-03T08:01:55.769Z,94942.50
2022-12-03T08:04:22.451Z,94935.78
2022-12-03T08:06:49.234Z,94927.56
2022-12-03T08:09:16.640Z,94943.56
2022-12-03T08:11:45.470Z,94938.25
2022-12-03T08:14:19.535Z,94940.13
2022-12-03T08:16:47.702Z,94925.00
2022-12-03T08:19:16.708Z,94926.13
2022-12-03T08:21:43.987Z,94938.75
2022-12-03T08:24:19.414Z,94945.31
2022-12-03T08:26:48.175Z,94952.03
2022-12-03T08:29:18.271Z,94948.72
2022-12-03T08:31:49.333Z,94952.03
2022-12-03T08:34:27.315Z,94950.50
2022-12-03T08:37:01.600Z,94953.72
2022-12-03T08:39:37.934Z,94951.06
2022-12-03T08:42:23.275Z,94946.72
2022-12-03T08:44:49.782Z,94946.06
2022-12-03T08:47:20.245Z,94941.91
2022-12-03T08:50:30.209Z,94943.91
2022-12-03T08:53:08.162Z,94947.03
2022-12-03T08:55:36.983Z,94932.41
2022-12-03T08:58:23.280Z,94938.72
2022-12-03T09:01:15.446Z,94938.25
2022-12-03T09:03:51.555Z,94942.63
2022-12-03T09:06:18.272Z,94931.63
2022-12-03T09:08:44.901Z,94939.63
2022-12-03T09:11:11.466Z,94940.69
2022-12-03T09:13:38.053Z,94935.97
2022-12-03T09:16:04.818Z,94937.94
2022-12-03T09:18:31.532Z,94935.75
2022-12-03T09:20:58.365Z,94942.84
2022-12-03T09:23:24.893Z,94932.44
2022-12-03T09:25:51.369Z,94946.34
2022-12-03T09:28:18.011Z,94946.16
2022-12-03T09:30:44.534Z,94951.19
2022-12-03T09:33:11.048Z,94940.16
2022-12-03T09:35:37.828Z,94943.84
2022-12-03T09:38:04.353Z,94938.88
2022-12-03T09:40:30.987Z,94943.41
2022-12-03T09:42:58.812Z,94942.84
2022-12-03T09:45:25.552Z,94934.09
2022-12-03T09:47:52.512Z,94938.16
2022-12-03T09:50:25.447Z,94927.50
2022-12-03T09:52:55.097Z,94919.03
2022-12-03T09:55:25.169Z,94902.00
2022-12-03T09:57:56.255Z,94925.28
2022-12-03T10:00:28.223Z,94914.09
2022-12-03T10:03:01.888Z,94917.22
2022-12-03T10:05:28.729Z,94912.94
2022-12-03T10:08:05.372Z,94905.09
2022-12-03T10:10:33.420Z,94912.38
2022-12-03T10:13:00.342Z,94885.38
2022-12-03T10:15:27.133Z,94888.56
2022-12-03T10:17:55.288Z,94886.38
2022-12-03T10:20:23.903Z,94876.00
2022-12-03T10:22:50.834Z,94880.84
2022-12-03T10:25:20.833Z,94889.34
2022-12-03T10:28:00.491Z,94875.66
2022-12-03T10:30:28.546Z,94881.03
2022-12-03T10:32:58.001Z,94877.00
2022-12-03T10:35:37.541Z,94879.19
2022-12-03T10:38:19.393Z,94884.25
2022-12-03T10:40:46.749Z,94879.44
2022-12-03T10:43:19.092Z,94881.53
2022-12-03T10:45:47.472Z,94875.97
2022-12-03T10:48:19.800Z,94877.50
2022-12-03T10:50:54.593Z,94878.63
2022-12-03T10:53:29.517Z,94877.06
2022-12-03T10:55:59.910Z,94876.25
2022-12-03T10:58:31.847Z,94875.81
2022-12-03T11:00:59.060Z,94873.16
2022-12-03T11:03:28.910Z,94866.50
2022-12-03T11:05:57.059Z,94853.50
2022-12-03T11:08:30.668Z,94848.38
2022-12-03T11:11:13.358Z,94840.50
2022-12-03T11:13:40.022Z,94847.72
2022-12-03T11:16:08.386Z,94847.81
2022-12-03T11:18:37.966Z,94847.22
2022-12-03T11:21:11.324Z,94840.59
2022-12-03T11:23:47.069Z,94822.19
2022-12-03T11:26:43.896Z,94822.75
2022-12-03T11:29:14.322Z,94818.28
2022-12-03T11:31:46.632Z,94821.16
2022-12-03T11:34:19.611Z,94821.19
2022-12-03T11:37:11.344Z,94825.41
2022-12-03T11:39:50.656Z,94824.75
2022-12-03T11:42:26.038Z,94829.09
2022-12-03T11:45:04.605Z,94834.47
2022-12-03T11:47:45.423Z,94831.19
2022-12-03T11:50:24.151Z,94831.34
2022-12-03T11:53:13.566Z,94821.47
2022-12-03T11:55:48.484Z,94827.16
2022-12-03T11:58:43.185Z,94822.16
2022-12-03T12:01:10.060Z,94817.28
2022-12-03T12:03:47.298Z,94823.75
2022-12-03T12:06:19.487Z,94810.66
2022-12-03T12:08:51.937Z,94815.59
2022-12-03T12:11:26.486Z,94806.56
2022-12-03T12:14:14.799Z,94797.56
2022-12-03T12:16:43.328Z,94795.13
2022-12-03T12:19:45.658Z,94795.88
2022-12-03T12:22:15.785Z,94795.28
2022-12-03T12:24:43.490Z,94791.66
2022-12-03T12:27:11.942Z,94787.31
2022-12-03T12:29:40.971Z,94781.38
2022-12-03T12:32:10.746Z,94788.75
2022-12-03T12:34:39.214Z,94783.38
2022-12-03T12:37:10.906Z,94785.06
2022-12-03T12:39:38.801Z,94774.84
2022-12-03T12:42:17.986Z,94788.19
2022-12-03T12:44:44.613Z,94788.09
2022-12-03T12:47:12.548Z,94783.47
2022-12-03T12:49:39.082Z,94787.84
2022-12-03T12:52:06.055Z,94779.09
2022-12-03T12:54:32.637Z,94779.25
2022-12-03T12:56:59.218Z,94789.28
2022-12-03T12:59:26.031Z,94776.59
2022-12-03T13:01:52.699Z,94778.53
2022-12-03T13:04:24.023Z,94782.88
2022-12-03T13:06:54.049Z,94779.94
2022-12-03T13:09:23.888Z,94777.25
2022-12-03T13:12:03.838Z,94777.59
2022-12-03T13:14:33.233Z,94772.16
2022-12-03T13:17:01.934Z,94771.34
2022-12-03T13:19:32.984Z,94769.66
2022-12-03T13:22:12.772Z,94762.13
2022-12-03T13:24:43.217Z,94762.25
2022-12-03T13:27:19.744Z,94766.75
2022-12-03T13:29:50.822Z,94760.84
2022-12-03T13:32:23.217Z,94748.78
2022-12-03T13:34:50.703Z,94757.44
2022-12-03T13:37:27.065Z,94750.84
2022-12-03T13:39:56.622Z,94747.59
2022-12-03T13:42:41.439Z,94745.94
2022-12-03T13:45:13.730Z,94742.38
2022-12-03T13:48:02.063Z,94741.22
2022-12-03T13:50:34.538Z,94742.38
2022-12-03T13:53:03.747Z,94730.75
2022-12-03T13:55:31.454Z,94743.47
2022-12-03T13:57:58.304Z,94744.19
2022-12-03T14:00:25.116Z,94731.97
2022-12-03T14:02:51.849Z,94747.44
2022-12-03T14:05:18.965Z,94742.59
2022-12-03T14:07:45.772Z,94740.84
2022-12-03T14:10:12.919Z,94741.25
2022-12-03T14:12:39.458Z,94751.50
2022-12-03T14:15:07.049Z,94744.13
2022-12-03T14:17:33.597Z,94746.97
2022-12-03T14:20:01.394Z,94747.94
2022-12-03T14:22:28.768Z,94745.75
2022-12-03T14:24:56.023Z,94749.34
2022-12-03T14:27:24.577Z,94757.53
2022-12-03T14:29:52.495Z,94751.81
2022-12-03T14:32:19.440Z,94750.53
2022-12-03T14:34:45.996Z,94749.47
2022-12-03T14:37:12.590Z,94756.34
2022-12-03T14:39:39.667Z,94756.66
2022-12-03T14:42:15.601Z,94754.66
2022-12-03T14:44:50.024Z,94754.41
2022-12-03T14:47:19.074Z,94756.28
2022-12-03T14:49:46.322Z,94752.34
2022-12-03T14:52:13.083Z,94747.91
2022-12-03T14:54:42.630Z,94738.91
2022-12-03T14:57:11.645Z,94753.53
2022-12-03T14:59:39.278Z,94754.13
2022-12-03T15:02:05.922Z,94749.53
2022-12-03T15:04:32.483Z,94747.84
2022-12-03T15:06:59.003Z,94748.69
2022-12-03T15:09:25.766Z,94741.47
2022-12-03T15:11:52.319Z,94743.47
2022-12-03T15:14:18.877Z,94728.47
2022-12-03T15:16:45.548Z,94747.28
2022-12-03T15:19:12.089Z,94737.13
2022-12-03T15:21:38.696Z,94742.56
2022-12-03T15:24:05.654Z,94743.00
2022-12-03T15:26:32.185Z,94747.25
2022-12-03T15:28:58.729Z,94742.72
2022-12-03T15:31:25.393Z,94740.81
2022-12-03T15:33:51.941Z,94737.13
2022-12-03T15:36:18.523Z,94742.66
2022-12-03T15:38:45.100Z,94732.00
2022-12-03T15:41:21.401Z,94748.94
2022-12-03T15:43:49.082Z,94741.88
2022-12-03T15:46:15.780Z,94733.59
2022-12-03T15:48:42.420Z,94736.09
2022-12-03T15:51:08.984Z,94733.66
2022-12-03T15:53:35.541Z,94738.97
2022-12-03T15:56:02.158Z,94740.03
2022-12-03T15:58:29.097Z,94734.44
2022-12-03T16:00:55.742Z,94745.44
2022-12-03T16:03:22.590Z,94729.56
2022-12-03T16:05:49.301Z,94743.94
2022-12-03T16:08:15.918Z,94738.88
2022-12-03T16:10:42.520Z,94735.13
2022-12-03T16:13:09.334Z,94731.00
2022-12-03T16:15:35.939Z,94728.91
2022-12-03T16:18:02.496Z,94724.81
2022-12-03T16:20:29.297Z,94730.25
2022-12-03T16:22:55.906Z,94719.63
2022-12-03T16:25:22.488Z,94717.53
2022-12-03T16:27:49.073Z,94736.19
2022-12-03T16:30:15.798Z,94733.78
2022-12-03T16:32:42.350Z,94727.63
2022-12-03T16:35:09.486Z,94728.06
2022-12-03T16:37:36.009Z,94732.41
2022-12-03T16:40:02.967Z,94733.25
2022-12-03T16:42:29.680Z,94726.53
2022-12-03T16:45:22.859Z,94727.31
2022-12-03T16:47:50.113Z,94714.31
2022-12-03T16:50:24.496Z,94718.00
2022-12-03T16:52:55.501Z,94716.47
2022-12-03T16:55:22.037Z,94696.59
2022-12-03T16:57:48.559Z,94709.13
2022-12-03T17:00:15.717Z,94721.16
2022-12-03T17:02:42.257Z,94720.25
2022-12-03T17:05:09.143Z,94718.84
2022-12-03T17:07:35.991Z,94715.97
2022-12-03T17:10:02.688Z,94713.25
2022-12-03T17:12:42.326Z,94704.06
2022-12-03T17:15:15.958Z,94703.66
2022-12-03T17:17:42.444Z,94697.22
2022-12-03T17:20:09.275Z,94695.63
2022-12-03T17:22:35.976Z,94692.78
2022-12-03T17:25:02.482Z,94690.81
2022-12-03T17:27:29.527Z,94681.31
2022-12-03T17:29:56.281Z,94683.38
2022-12-03T17:32:22.947Z,94685.72
2022-12-03T17:34:49.708Z,94692.00
2022-12-03T17:37:16.333Z,94690.88
2022-12-03T17:39:42.826Z,94686.09
2022-12-03T17:42:09.418Z,94684.94
2022-12-03T17:44:35.986Z,94675.31
2022-12-03T17:47:02.567Z,94685.97
2022-12-03T17:49:31.642Z,94679.56
2022-12-03T17:51:58.634Z,94671.53
2022-12-03T17:54:34.133Z,94688.47
2022-12-03T17:57:11.673Z,94688.03
2022-12-03T17:59:38.151Z,94686.88
2022-12-03T18:02:04.709Z,94692.47
2022-12-03T18:04:31.533Z,94697.66
2022-12-03T18:07:02.177Z,94691.47
2022-12-03T18:09:29.257Z,94697.84
2022-12-03T18:11:56.005Z,94700.56
2022-12-03T18:14:22.485Z,94703.84
2022-12-03T18:16:49.069Z,94694.69
2022-12-03T18:19:15.784Z,94692.31
2022-12-03T18:21:42.345Z,94684.41
2022-12-03T18:24:09.486Z,94697.75
2022-12-03T18:26:36.300Z,94691.72
2022-12-03T18:29:03.259Z,94699.34
2022-12-03T18:31:29.876Z,94686.94
2022-12-03T18:33:56.638Z,94694.94
2022-12-03T18:36:25.989Z,94695.06
2022-12-03T18:38:55.420Z,94686.66
2022-12-03T18:41:25.154Z,94686.25
2022-12-03T18:43:51.999Z,94686.97
2022-12-03T18:46:51.226Z,94684.25
2022-12-03T18:49:06.226Z,94678.84
2022-12-03T18:51:32.752Z,94683.44
2022-12-03T18:53:59.277Z,94677.84
2022-12-03T18:56:25.838Z,94683.13
2022-12-03T18:58:52.352Z,94692.94
2022-12-03T19:01:22.278Z,94688.53
2022-12-03T19:03:49.998Z,94683.19
2022-12-03T19:06:19.641Z,94682.78
2022-12-03T19:08:48.245Z,94690.59
2022-12-03T19:11:15.360Z,94681.16
2022-12-03T19:13:42.133Z,94686.47
2022-12-03T19:16:10.466Z,94683.75
2022-12-03T19:18:37.248Z,94675.56
2022-12-03T19:21:08.612Z,94684.88
2022-12-03T19:23:36.976Z,94680.59
2022-12-03T19:26:06.199Z,94679.94
2022-12-03T19:28:33.024Z,94675.41
2022-12-03T19:31:15.027Z,94669.72
2022-12-03T19:33:45.578Z,94678.75
2022-12-03T19:36:23.899Z,94684.47
2022-12-03T19:38:56.846Z,94680.41
2022-12-03T19:41:27.388Z,94673.78
2022-12-03T19:43:55.385Z,94664.66
2022-12-03T19:46:23.956Z,94674.16
2022-12-03T19:48:50.766Z,94673.78
2022-12-03T19:51:33.668Z,94672.88
2022-12-03T19:54:01.090Z,94667.16
2022-12-03T19:56:30.251Z,94666.47
2022-12-03T19:58:57.426Z,94665.84
2022-12-03T20:01:26.866Z,94674.09
2022-12-03T20:03:55.334Z,94680.31
2022-12-03T20:06:24.565Z,94671.16
2022-12-03T20:08:55.648Z,94676.91
2022-12-03T20:11:25.152Z,94676.47
2022-12-03T20:13:57.667Z,94684.00
2022-12-03T20:16:25.832Z,94690.88
2022-12-03T20:18:57.122Z,94688.41
2022-12-03T20:21:24.260Z,94687.88
2022-12-03T20:23:50.830Z,94680.56
2022-12-03T20:26:19.654Z,94680.44
2022-12-03T20:28:48.149Z,94669.53
2022-12-03T20:31:20.178Z,94665.34
2022-12-03T20:33:50.124Z,94668.88
2022-12-03T20:36:18.610Z,94667.22
2022-12-03T20:38:45.297Z,94657.44
2022-12-03T20:41:14.393Z,94665.72
2022-12-03T20:43:41.465Z,94660.47
2022-12-03T20:46:17.983Z,94676.19
2022-12-03T20:48:45.398Z,94660.34
2022-12-03T20:51:15.487Z,94673.88
2022-12-03T20:53:42.937Z,94673.03
2022-12-03T20:56:18.583Z,94667.72
2022-12-03T20:58:45.120Z,94667.16
2022-12-03T21:01:16.167Z,94662.41
2022-12-03T21:03:43.865Z,94674.09
2022-12-03T21:06:11.524Z,94666.75
2022-12-03T21:08:41.893Z,94672.09
2022-12-03T21:11:14.946Z,94655.50
2022-12-03T21:13:43.503Z,94655.84
2022-12-03T21:16:13.293Z,94652.81
2022-12-03T21:18:40.598Z,94656.06
2022-12-03T21:21:08.579Z,94659.63
2022-12-03T21:23:35.632Z,94658.09
2022-12-03T21:26:22.297Z,94650.31
2022-12-03T21:28:51.289Z,94655.94
2022-12-03T21:31:20.679Z,94653.69
2022-12-03T21:33:48.212Z,94661.91
2022-12-03T21:36:16.813Z,94668.94
2022-12-03T21:38:44.945Z,94672.50
2022-12-03T21:41:12.688Z,94674.38
2022-12-03T21:43:39.295Z,94679.69
2022-12-03T21:47:10.160Z,94685.19
2022-12-03T21:48:59.455Z,94675.41
2022-12-03T21:51:26.021Z,94675.88
2022-12-03T21:53:53.497Z,94668.78
2022-12-03T21:56:20.204Z,94667.00
2022-12-03T21:58:47.026Z,94663.16
2022-12-03T22:01:19.542Z,94665.34
2022-12-03T22:03:46.502Z,94682.16
2022-12-03T22:09:54.123Z,94676.31
2022-12-03T22:12:20.790Z,94674.38
2022-12-03T22:14:47.369Z,94672.00
2022-12-03T22:17:13.909Z,94674.66
2022-12-03T22:19:40.482Z,94682.81
2022-12-03T22:22:07.048Z,94687.25
2022-12-03T22:24:33.745Z,94703.91
2022-12-03T22:27:00.335Z,94697.59
2022-12-03T22:29:26.849Z,94695.34
2022-12-03T22:31:53.483Z,94695.88
2022-12-03T22:34:20.008Z,94697.06
2022-12-03T22:36:46.577Z,94690.94
2022-12-03T22:39:13.292Z,94690.84
2022-12-03T22:41:39.793Z,94691.38
2022-12-03T22:44:06.293Z,94691.03
2022-12-03T22:46:33.155Z,94695.69
2022-12-03T22:49:06.455Z,94694.94
2022-12-03T22:51:34.220Z,94695.66
2022-12-03T22:54:01.878Z,94688.34
2022-12-03T22:56:30.340Z,94679.06
2022-12-03T22:58:57.247Z,94687.13
2022-12-03T23:01:27.878Z,94685.06
2022-12-03T23:03:54.815Z,94679.19
2022-12-03T23:06:22.645Z,94677.56
2022-12-03T23:08:49.624Z,94687.03
2022-12-03T23:11:16.606Z,94695.66
2022-12-03T23:13:43.123Z,94682.59
2022-12-03T23:16:15.150Z,94677.84
2022-12-03T23:18:42.110Z,94687.88
2022-12-03T23:21:09.111Z,94673.56
2022-12-03T23:23:35.642Z,94685.38
2022-12-03T23:26:07.901Z,94678.06
2022-12-03T23:28:36.672Z,94678.00
2022-12-03T23:31:04.286Z,94675.56
2022-12-03T23:33:36.624Z,94681.38
2022-12-03T23:36:06.334Z,94675.75
2022-12-03T23:38:32.791Z,94676.97
2022-12-03T23:41:07.301Z,94672.47
2022-12-03T23:43:34.093Z,94679.38
2022-12-03T23:46:09.500Z,94657.97
2022-12-03T23:48:36.472Z,94656.41
2022-12-03T23:51:11.469Z,94630.69
2022-12-03T23:53:39.061Z,94649.75
2022-12-03T23:56:07.204Z,94653.38
2022-12-03T23:58:34.252Z,94669.34
